Time;durP1;ratioP1;P1;durP2;ratioP2;P2;SDS_P1;SDS_P2;PMS_P1;PMS_P2;Temp;Humidity;BMP_temperature;BMP_pressure;BME280_temperature;BME280_humidity;BME280_pressure;Samples;Min_cycle;Max_cycle;Signal;HPM_P1;HPM_P2
2022/05/28 00:02:11;;;;;;;8.53;2.10;;;;;;;;;;4974335;28;20712;-54
2022/05/28 00:04:38;;;;;;;8.13;2.67;;;;;;;;;;4976092;28;20241;-54
2022/05/28 00:07:04;;;;;;;10.23;2.53;;;;;;;;;;4975990;28;20225;-54
2022/05/28 00:09:31;;;;;;;7.10;2.03;;;;;;;;;;4976161;28;20206;-53
2022/05/28 00:11:57;;;;;;;4.50;2.07;;;;;;;;;;4975933;28;20203;-54
2022/05/28 00:14:23;;;;;;;9.10;2.37;;;;;;;;;;4975926;28;20314;-54
2022/05/28 00:16:49;;;;;;;7.03;2.27;;;;;;;;;;4975762;28;20643;-54
2022/05/28 00:19:15;;;;;;;6.80;2.03;;;;;;;;;;4976009;28;20302;-54
2022/05/28 00:21:43;;;;;;;4.33;1.57;;;;;;;;;;4975738;28;20290;-54
2022/05/28 00:24:09;;;;;;;6.27;2.37;;;;;;;;;;4975647;28;20234;-55
2022/05/28 00:26:35;;;;;;;8.27;2.10;;;;;;;;;;4975284;28;20768;-55
2022/05/28 00:29:01;;;;;;;3.90;1.73;;;;;;;;;;4975535;28;20229;-55
2022/05/28 00:31:27;;;;;;;4.50;1.90;;;;;;;;;;4975653;28;20199;-54
2022/05/28 00:33:53;;;;;;;8.00;2.33;;;;;;;;;;4974059;28;20254;-55
2022/05/28 00:36:19;;;;;;;4.80;1.77;;;;;;;;;;4975519;28;20203;-54
2022/05/28 00:38:47;;;;;;;3.37;1.90;;;;;;;;;;4975728;28;20202;-55
2022/05/28 00:41:13;;;;;;;5.20;2.47;;;;;;;;;;4975458;28;20203;-55
2022/05/28 00:43:40;;;;;;;6.37;2.20;;;;;;;;;;4975419;28;20238;-55
2022/05/28 00:46:08;;;;;;;5.33;1.83;;;;;;;;;;4975361;28;20203;-56
2022/05/28 00:48:36;;;;;;;5.80;1.97;;;;;;;;;;4975239;28;20199;-56
2022/05/28 00:51:04;;;;;;;5.03;1.70;;;;;;;;;;4975292;28;20298;-55
2022/05/28 00:53:30;;;;;;;6.00;1.53;;;;;;;;;;4975316;28;20294;-56
2022/05/28 00:55:58;;;;;;;3.70;1.50;;;;;;;;;;4975092;28;20205;-56
2022/05/28 00:58:24;;;;;;;3.83;1.70;;;;;;;;;;4975069;28;20772;-56
2022/05/28 01:00:50;;;;;;;5.50;1.50;;;;;;;;;;4975082;28;20209;-56
2022/05/28 01:03:18;;;;;;;3.80;1.83;;;;;;;;;;4975271;28;20222;-56
2022/05/28 01:05:47;;;;;;;7.67;2.07;;;;;;;;;;4975040;28;20207;-55
2022/05/28 01:08:14;;;;;;;6.10;1.77;;;;;;;;;;4975009;28;20579;-55
2022/05/28 01:10:42;;;;;;;8.27;2.03;;;;;;;;;;4974826;28;20661;-55
2022/05/28 01:13:13;;;;;;;4.70;1.80;;;;;;;;;;4974050;28;20203;-55
2022/05/28 01:15:42;;;;;;;7.37;1.73;;;;;;;;;;4974900;28;20638;-54
2022/05/28 01:18:11;;;;;;;6.57;2.03;;;;;;;;;;4974720;28;20231;-55
2022/05/28 01:20:40;;;;;;;5.03;2.03;;;;;;;;;;4974739;28;20219;-55
2022/05/28 01:23:26;;;;;;;5.90;2.17;;;;;;;;;;4974617;28;20222;-55
2022/05/28 01:25:56;;;;;;;2.87;1.73;;;;;;;;;;4974380;28;20569;-55
2022/05/28 01:28:25;;;;;;;4.97;1.80;;;;;;;;;;4974336;28;20259;-55
2022/05/28 01:30:52;;;;;;;5.27;1.70;;;;;;;;;;4974550;28;20254;-55
2022/05/28 01:33:18;;;;;;;8.23;2.13;;;;;;;;;;4974756;28;20209;-55
2022/05/28 01:35:45;;;;;;;4.57;2.10;;;;;;;;;;4974288;28;20266;-55
2022/05/28 01:38:12;;;;;;;5.17;1.80;;;;;;;;;;4974295;28;20670;-55
2022/05/28 01:40:39;;;;;;;4.17;2.47;;;;;;;;;;4974462;28;20593;-54
2022/05/28 01:43:08;;;;;;;9.13;2.50;;;;;;;;;;4974288;28;20645;-54
2022/05/28 01:45:36;;;;;;;7.80;2.40;;;;;;;;;;4974100;28;20755;-54
2022/05/28 01:48:04;;;;;;;4.63;1.70;;;;;;;;;;4974234;28;20234;-54
2022/05/28 01:50:32;;;;;;;6.17;2.40;;;;;;;;;;4974241;28;20251;-54
2022/05/28 01:53:00;;;;;;;10.87;2.37;;;;;;;;;;4974056;28;20670;-54
2022/05/28 01:55:27;;;;;;;5.90;1.90;;;;;;;;;;4974122;28;20209;-54
2022/05/28 01:57:53;;;;;;;7.70;2.40;;;;;;;;;;4973945;28;20226;-54
2022/05/28 02:00:19;;;;;;;6.50;2.17;;;;;;;;;;4973787;28;20653;-54
2022/05/28 02:02:46;;;;;;;5.37;2.30;;;;;;;;;;4974077;28;20301;-53
2022/05/28 02:05:13;;;;;;;6.93;1.80;;;;;;;;;;4973689;28;20253;-53
2022/05/28 02:07:39;;;;;;;8.07;2.00;;;;;;;;;;4973964;28;20218;-53
2022/05/28 02:10:07;;;;;;;4.50;2.10;;;;;;;;;;4973701;28;20250;-53
2022/05/28 02:12:34;;;;;;;6.97;2.20;;;;;;;;;;4973872;28;20675;-54
2022/05/28 02:15:15;;;;;;;6.23;1.70;;;;;;;;;;4973729;28;20202;-53
2022/05/28 02:17:47;;;;;;;5.20;2.00;;;;;;;;;;4973827;28;20207;-53
2022/05/28 02:20:17;;;;;;;6.97;2.73;;;;;;;;;;4973551;28;20575;-53
2022/05/28 02:22:46;;;;;;;6.20;2.03;;;;;;;;;;4973438;28;20238;-53
2022/05/28 02:25:16;;;;;;;5.90;2.07;;;;;;;;;;4973316;28;20239;-53
2022/05/28 02:27:43;;;;;;;8.03;2.67;;;;;;;;;;4973344;28;20253;-52
2022/05/28 02:30:10;;;;;;;9.60;2.23;;;;;;;;;;4973400;28;20237;-53
2022/05/28 02:32:36;;;;;;;8.03;2.20;;;;;;;;;;4973508;28;20203;-53
2022/05/28 02:35:02;;;;;;;10.80;1.97;;;;;;;;;;4973320;28;20203;-52
2022/05/28 02:37:29;;;;;;;4.13;1.70;;;;;;;;;;4973453;28;20199;-53
2022/05/28 02:39:57;;;;;;;6.77;2.20;;;;;;;;;;4973294;28;20258;-52
2022/05/28 02:42:23;;;;;;;6.33;2.03;;;;;;;;;;4973188;28;20638;-53
2022/05/28 02:44:49;;;;;;;6.10;2.07;;;;;;;;;;4973270;28;20219;-53
2022/05/28 02:47:16;;;;;;;2.67;2.00;;;;;;;;;;4973217;28;20680;-53
2022/05/28 02:49:42;;;;;;;7.60;2.33;;;;;;;;;;4973163;28;20206;-53
2022/05/28 02:52:08;;;;;;;8.63;2.53;;;;;;;;;;4973041;28;20210;-53
2022/05/28 02:54:36;;;;;;;5.73;2.30;;;;;;;;;;4973099;28;20191;-53
2022/05/28 02:57:02;;;;;;;5.83;2.50;;;;;;;;;;4973205;28;20214;-53
2022/05/28 02:59:28;;;;;;;7.40;2.53;;;;;;;;;;4973176;28;20207;-53
2022/05/28 03:01:54;;;;;;;8.23;2.43;;;;;;;;;;4973055;28;20203;-53
2022/05/28 03:04:20;;;;;;;7.17;2.40;;;;;;;;;;4972748;28;20740;-53
2022/05/28 03:06:46;;;;;;;7.47;2.80;;;;;;;;;;4973083;28;20203;-53
2022/05/28 03:09:13;;;;;;;6.93;2.23;;;;;;;;;;4972904;28;20688;-53
2022/05/28 03:11:40;;;;;;;3.97;2.00;;;;;;;;;;4971329;28;20305;-53
2022/05/28 03:14:06;;;;;;;7.30;2.40;;;;;;;;;;4972916;28;20203;-53
2022/05/28 03:16:32;;;;;;;6.07;2.50;;;;;;;;;;4973098;28;20294;-53
2022/05/28 03:18:58;;;;;;;6.27;2.30;;;;;;;;;;4972917;28;20677;-53
2022/05/28 03:21:24;;;;;;;9.60;2.27;;;;;;;;;;4972877;28;20214;-53
2022/05/28 03:23:50;;;;;;;5.37;2.13;;;;;;;;;;4972764;28;20211;-53
2022/05/28 03:26:21;;;;;;;8.83;2.40;;;;;;;;;;4972794;28;20219;-53
2022/05/28 03:28:49;;;;;;;9.53;2.27;;;;;;;;;;4973053;28;20641;-53
2022/05/28 03:31:15;;;;;;;6.90;2.40;;;;;;;;;;4972958;28;20210;-53
2022/05/28 03:33:42;;;;;;;10.87;2.33;;;;;;;;;;4972706;28;20590;-52
2022/05/28 03:36:08;;;;;;;8.97;2.27;;;;;;;;;;4973743;28;20202;-53
2022/05/28 03:38:35;;;;;;;12.33;2.80;;;;;;;;;;4975063;28;20209;-53
2022/05/28 03:41:01;;;;;;;10.30;3.07;;;;;;;;;;4976611;28;20199;-53
2022/05/28 03:43:27;;;;;;;5.10;2.00;;;;;;;;;;4976452;28;20617;-53
2022/05/28 03:45:55;;;;;;;9.83;3.00;;;;;;;;;;4976265;28;20321;-53
2022/05/28 03:48:21;;;;;;;8.03;2.33;;;;;;;;;;4976282;28;20290;-52
2022/05/28 03:50:47;;;;;;;7.80;2.50;;;;;;;;;;4976085;28;20199;-52
2022/05/28 03:53:15;;;;;;;10.00;2.63;;;;;;;;;;4976271;28;20205;-52
2022/05/28 03:55:41;;;;;;;6.87;2.27;;;;;;;;;;4976327;28;20195;-53
2022/05/28 03:58:07;;;;;;;4.77;2.27;;;;;;;;;;4976069;28;20290;-52
2022/05/28 04:00:34;;;;;;;9.37;2.40;;;;;;;;;;4976067;28;20291;-53
2022/05/28 04:03:01;;;;;;;9.50;2.80;;;;;;;;;;4975815;28;20661;-53
2022/05/28 04:05:27;;;;;;;7.93;3.07;;;;;;;;;;4975752;28;20756;-52
2022/05/28 04:07:53;;;;;;;6.43;2.50;;;;;;;;;;4975835;28;20262;-53
2022/05/28 04:10:20;;;;;;;8.67;2.37;;;;;;;;;;4975936;28;20199;-53
2022/05/28 04:12:46;;;;;;;11.53;2.73;;;;;;;;;;4976062;28;20218;-53
2022/05/28 04:15:13;;;;;;;7.60;2.50;;;;;;;;;;4975786;28;20199;-53
2022/05/28 04:17:39;;;;;;;8.70;2.27;;;;;;;;;;4975684;28;20611;-53
2022/05/28 04:20:08;;;;;;;5.27;1.97;;;;;;;;;;4975784;28;20210;-52
2022/05/28 04:22:34;;;;;;;6.10;2.20;;;;;;;;;;4975864;28;20211;-53
2022/05/28 04:25:00;;;;;;;10.63;2.53;;;;;;;;;;4975719;28;20615;-52
2022/05/28 04:27:26;;;;;;;8.70;2.37;;;;;;;;;;4975021;28;20247;-52
2022/05/28 04:29:52;;;;;;;11.87;2.50;;;;;;;;;;4975312;28;20226;-52
2022/05/28 04:32:18;;;;;;;8.67;2.30;;;;;;;;;;4975260;28;20809;-52
2022/05/28 04:34:45;;;;;;;6.30;2.70;;;;;;;;;;4973256;28;20261;-52
2022/05/28 04:37:12;;;;;;;10.03;2.40;;;;;;;;;;4975316;28;20195;-52
2022/05/28 04:39:38;;;;;;;5.63;2.20;;;;;;;;;;4975363;28;20303;-53
2022/05/28 04:42:05;;;;;;;10.60;2.47;;;;;;;;;;4975264;28;20740;-52
2022/05/28 04:44:31;;;;;;;7.97;2.23;;;;;;;;;;4975303;28;20230;-52
2022/05/28 04:46:57;;;;;;;6.20;2.00;;;;;;;;;;4975156;28;20696;-52
2022/05/28 04:49:23;;;;;;;9.43;2.20;;;;;;;;;;4974957;28;20241;-53
2022/05/28 04:51:49;;;;;;;9.83;2.57;;;;;;;;;;4975047;28;20283;-52
2022/05/28 04:54:16;;;;;;;5.57;2.10;;;;;;;;;;4974741;28;20602;-52
2022/05/28 04:56:42;;;;;;;8.13;2.60;;;;;;;;;;4974983;28;20653;-52
2022/05/28 04:59:08;;;;;;;8.10;2.83;;;;;;;;;;4974924;28;20202;-52
2022/05/28 05:01:36;;;;;;;8.20;2.20;;;;;;;;;;4974873;28;20214;-51
2022/05/28 05:04:02;;;;;;;5.03;2.20;;;;;;;;;;4974939;28;20223;-51
2022/05/28 05:06:28;;;;;;;8.60;2.77;;;;;;;;;;4974906;28;20199;-52
2022/05/28 05:08:54;;;;;;;10.60;2.33;;;;;;;;;;4974860;28;20620;-52
2022/05/28 05:11:21;;;;;;;10.30;2.47;;;;;;;;;;4974526;28;20203;-52
2022/05/28 05:13:47;;;;;;;8.33;2.40;;;;;;;;;;4974879;28;20688;-52
2022/05/28 05:16:17;;;;;;;7.53;2.30;;;;;;;;;;4974588;28;20199;-52
2022/05/28 05:18:43;;;;;;;10.00;2.33;;;;;;;;;;4974651;28;20258;-52
2022/05/28 05:21:11;;;;;;;7.43;2.37;;;;;;;;;;4974478;28;20612;-52
2022/05/28 05:23:38;;;;;;;8.07;2.30;;;;;;;;;;4974466;28;20207;-51
2022/05/28 05:26:08;;;;;;;8.07;2.37;;;;;;;;;;4974229;28;20245;-51
2022/05/28 05:28:35;;;;;;;8.30;2.37;;;;;;;;;;4974077;28;20635;-52
2022/05/28 05:31:01;;;;;;;5.90;2.20;;;;;;;;;;4974607;28;20247;-52
2022/05/28 05:33:27;;;;;;;8.10;2.10;;;;;;;;;;4974191;28;20238;-52
2022/05/28 05:35:53;;;;;;;8.07;2.03;;;;;;;;;;4974129;28;20653;-52
2022/05/28 05:38:19;;;;;;;6.90;1.97;;;;;;;;;;4974173;28;20194;-52
2022/05/28 05:40:45;;;;;;;7.00;2.27;;;;;;;;;;4974230;28;20206;-52
2022/05/28 05:43:11;;;;;;;5.90;1.73;;;;;;;;;;4974041;28;20206;-52
2022/05/28 05:45:38;;;;;;;8.37;2.33;;;;;;;;;;4973682;28;20598;-52
2022/05/28 05:48:05;;;;;;;6.33;1.90;;;;;;;;;;4974132;28;20211;-52
2022/05/28 05:50:31;;;;;;;6.33;2.43;;;;;;;;;;4974126;28;20661;-52
2022/05/28 05:52:57;;;;;;;9.87;2.30;;;;;;;;;;4973819;28;20199;-52
2022/05/28 05:55:23;;;;;;;5.10;2.10;;;;;;;;;;4973835;28;20273;-51
2022/05/28 05:57:49;;;;;;;9.80;2.30;;;;;;;;;;4973505;28;20605;-52
2022/05/28 06:00:15;;;;;;;7.13;2.50;;;;;;;;;;4973529;28;20221;-52
2022/05/28 06:02:43;;;;;;;7.40;2.20;;;;;;;;;;4973665;28;20213;-52
2022/05/28 06:05:09;;;;;;;7.37;2.17;;;;;;;;;;4973549;28;20223;-52
2022/05/28 06:07:36;;;;;;;12.80;2.37;;;;;;;;;;4973688;28;20243;-52
2022/05/28 06:10:02;;;;;;;6.57;2.20;;;;;;;;;;4973908;28;20203;-52
2022/05/28 06:12:28;;;;;;;8.27;2.67;;;;;;;;;;4973965;28;20202;-52
2022/05/28 06:14:54;;;;;;;6.03;2.33;;;;;;;;;;4974025;28;20261;-51
2022/05/28 06:17:20;;;;;;;8.73;2.50;;;;;;;;;;4973630;28;20558;-52
2022/05/28 06:19:47;;;;;;;9.40;3.20;;;;;;;;;;4973851;28;20203;-51
2022/05/28 06:22:13;;;;;;;8.33;2.47;;;;;;;;;;4973349;28;20203;-52
2022/05/28 06:24:39;;;;;;;10.87;2.70;;;;;;;;;;4973287;28;20235;-52
2022/05/28 06:27:05;;;;;;;9.53;2.33;;;;;;;;;;4972993;28;20606;-52
2022/05/28 06:29:31;;;;;;;7.27;2.57;;;;;;;;;;4973100;28;20211;-52
2022/05/28 06:31:57;;;;;;;7.87;2.20;;;;;;;;;;4972839;28;20253;-52
2022/05/28 06:34:23;;;;;;;9.13;2.87;;;;;;;;;;4973026;28;20206;-52
2022/05/28 06:36:51;;;;;;;9.90;2.67;;;;;;;;;;4972879;28;20285;-53
2022/05/28 06:39:17;;;;;;;5.97;2.50;;;;;;;;;;4973194;28;20214;-52
2022/05/28 06:41:43;;;;;;;9.03;2.20;;;;;;;;;;4973238;28;20203;-51
2022/05/28 06:44:09;;;;;;;10.47;2.47;;;;;;;;;;4972950;28;20652;-53
2022/05/28 06:46:35;;;;;;;6.30;2.20;;;;;;;;;;4973062;28;20232;-52
2022/05/28 06:49:01;;;;;;;9.70;2.50;;;;;;;;;;4973000;28;20218;-52
2022/05/28 06:51:27;;;;;;;7.87;2.30;;;;;;;;;;4972895;28;20206;-52
2022/05/28 06:53:54;;;;;;;7.93;2.43;;;;;;;;;;4972793;28;20234;-52
2022/05/28 06:56:20;;;;;;;9.97;2.90;;;;;;;;;;4972712;28;20213;-52
2022/05/28 06:58:47;;;;;;;5.23;2.50;;;;;;;;;;4972492;28;20657;-51
2022/05/28 07:01:14;;;;;;;10.87;2.57;;;;;;;;;;4972942;28;20322;-51
2022/05/28 07:03:43;;;;;;;10.23;2.40;;;;;;;;;;4972666;28;20661;-52
2022/05/28 07:06:10;;;;;;;8.33;2.40;;;;;;;;;;4972768;28;20609;-53
2022/05/28 07:08:36;;;;;;;9.67;2.70;;;;;;;;;;4972511;28;20253;-53
2022/05/28 07:11:07;;;;;;;11.97;2.60;;;;;;;;;;4975807;28;20202;-52
2022/05/28 07:13:33;;;;;;;7.63;2.20;;;;;;;;;;4976963;28;20209;-53
2022/05/28 07:15:59;;;;;;;11.20;3.07;;;;;;;;;;4977004;28;20289;-52
2022/05/28 07:18:25;;;;;;;10.73;2.97;;;;;;;;;;4976551;28;20222;-53
2022/05/28 07:20:51;;;;;;;7.53;2.90;;;;;;;;;;4976723;28;20226;-53
2022/05/28 07:23:18;;;;;;;11.17;2.37;;;;;;;;;;4976719;28;20242;-52
2022/05/28 07:25:44;;;;;;;9.87;3.00;;;;;;;;;;4976572;28;20249;-53
2022/05/28 07:30:58;;;;;;;6.33;2.43;;;;;;;;;;4976487;28;20202;-52
2022/05/28 07:33:25;;;;;;;7.33;2.20;;;;;;;;;;4976383;28;20290;-52
2022/05/28 07:35:51;;;;;;;5.97;2.10;;;;;;;;;;4976372;28;20198;-52
2022/05/28 07:38:17;;;;;;;7.60;1.93;;;;;;;;;;4976848;28;20561;-53
2022/05/28 07:40:43;;;;;;;5.00;2.50;;;;;;;;;;4976344;28;20203;-53
2022/05/28 07:43:10;;;;;;;5.30;2.23;;;;;;;;;;4976354;28;20226;-53
2022/05/28 07:45:40;;;;;;;6.60;2.23;;;;;;;;;;4975918;28;20262;-53
2022/05/28 07:48:06;;;;;;;7.20;1.93;;;;;;;;;;4976158;28;20677;-53
2022/05/28 07:50:32;;;;;;;9.57;2.27;;;;;;;;;;4976262;28;20238;-52
2022/05/28 07:52:59;;;;;;;7.70;2.23;;;;;;;;;;4976243;28;20199;-53
2022/05/28 07:55:25;;;;;;;5.93;2.10;;;;;;;;;;4976107;28;20202;-53
2022/05/28 07:57:51;;;;;;;4.67;2.10;;;;;;;;;;4975993;28;20202;-53
2022/05/28 08:00:18;;;;;;;5.50;1.97;;;;;;;;;;4976155;28;20207;-53
2022/05/28 08:02:45;;;;;;;7.20;2.77;;;;;;;;;;4976083;28;20207;-52
2022/05/28 08:05:11;;;;;;;8.53;2.40;;;;;;;;;;4975657;28;20235;-53
2022/05/28 08:07:37;;;;;;;9.87;2.63;;;;;;;;;;4975759;28;20203;-54
2022/05/28 08:10:03;;;;;;;5.00;2.03;;;;;;;;;;4975836;28;20265;-52
2022/05/28 08:12:29;;;;;;;7.07;2.57;;;;;;;;;;4975656;28;20203;-52
2022/05/28 08:14:55;;;;;;;8.03;1.93;;;;;;;;;;4975574;28;20671;-49
2022/05/28 08:17:21;;;;;;;5.93;2.20;;;;;;;;;;4975563;28;20290;-53
2022/05/28 08:19:49;;;;;;;6.40;2.20;;;;;;;;;;4975691;28;20210;-54
2022/05/28 08:24:59;;;;;;;6.97;2.43;;;;;;;;;;4975484;28;20225;-54
2022/05/28 08:27:25;;;;;;;5.97;1.97;;;;;;;;;;4974899;28;20239;-53
2022/05/28 08:29:51;;;;;;;6.33;2.10;;;;;;;;;;4975316;28;20258;-63
2022/05/28 08:32:18;;;;;;;6.27;2.17;;;;;;;;;;4975639;28;20673;-65
2022/05/28 08:34:44;;;;;;;7.77;2.63;;;;;;;;;;4975361;28;20203;-64
2022/05/28 08:37:12;;;;;;;4.90;1.97;;;;;;;;;;4975331;28;20199;-63
2022/05/28 08:39:38;;;;;;;6.17;2.30;;;;;;;;;;4975212;28;20203;-54
2022/05/28 08:42:04;;;;;;;8.33;2.37;;;;;;;;;;4975328;28;20298;-54
2022/05/28 08:44:32;;;;;;;6.00;2.00;;;;;;;;;;4974696;28;20587;-55
2022/05/28 08:47:02;;;;;;;7.63;2.37;;;;;;;;;;4975442;28;20202;-56
2022/05/28 08:49:29;;;;;;;10.20;2.43;;;;;;;;;;4975217;28;20205;-56
2022/05/28 08:51:59;;;;;;;7.50;2.33;;;;;;;;;;4975512;28;20203;-56
2022/05/28 08:54:29;;;;;;;7.57;2.60;;;;;;;;;;4975064;28;20728;-55
2022/05/28 08:56:57;;;;;;;7.17;2.10;;;;;;;;;;4975100;28;20207;-55
2022/05/28 08:59:25;;;;;;;5.17;2.40;;;;;;;;;;4975010;28;20612;-55
2022/05/28 09:01:52;;;;;;;4.13;1.90;;;;;;;;;;4974496;28;20203;-55
2022/05/28 09:04:19;;;;;;;6.93;2.20;;;;;;;;;;4974896;28;20210;-55
2022/05/28 09:06:54;;;;;;;6.87;2.40;;;;;;;;;;4974893;28;20207;-55
2022/05/28 09:09:24;;;;;;;7.93;2.20;;;;;;;;;;4974807;28;20233;-55
2022/05/28 09:11:54;;;;;;;8.23;2.70;;;;;;;;;;4974797;28;20203;-56
2022/05/28 09:14:22;;;;;;;7.43;2.47;;;;;;;;;;4974967;28;20241;-55
2022/05/28 09:16:50;;;;;;;9.00;2.90;;;;;;;;;;4974533;28;20677;-55
2022/05/28 09:19:18;;;;;;;7.07;2.50;;;;;;;;;;4974858;28;20301;-56
2022/05/28 09:21:44;;;;;;;6.37;2.30;;;;;;;;;;4974720;28;20202;-56
2022/05/28 09:24:14;;;;;;;10.93;2.53;;;;;;;;;;4974725;28;20218;-56
2022/05/28 09:26:47;;;;;;;8.33;2.67;;;;;;;;;;4974092;28;20971;-56
2022/05/28 09:29:20;;;;;;;10.40;2.60;;;;;;;;;;4974679;28;20274;-55
2022/05/28 09:31:51;;;;;;;9.90;2.67;;;;;;;;;;4974579;28;20736;-56
2022/05/28 09:34:26;;;;;;;6.80;2.20;;;;;;;;;;4973974;28;20199;-55
2022/05/28 09:36:56;;;;;;;6.60;2.33;;;;;;;;;;4974387;28;20198;-55
2022/05/28 09:39:30;;;;;;;6.57;2.20;;;;;;;;;;4974477;28;20199;-55
2022/05/28 09:42:02;;;;;;;5.93;2.07;;;;;;;;;;4974326;28;20209;-56
2022/05/28 09:44:35;;;;;;;5.90;2.27;;;;;;;;;;4974325;28;20277;-55
2022/05/28 09:47:08;;;;;;;8.33;2.73;;;;;;;;;;4974419;28;20571;-55
2022/05/28 09:49:35;;;;;;;7.93;2.53;;;;;;;;;;4974179;28;20658;-56
2022/05/28 09:52:06;;;;;;;6.33;2.10;;;;;;;;;;4974383;28;20670;-55
2022/05/28 09:54:33;;;;;;;4.60;2.30;;;;;;;;;;4974160;28;20199;-55
2022/05/28 09:57:01;;;;;;;6.53;2.13;;;;;;;;;;4974216;28;20663;-55
2022/05/28 09:59:29;;;;;;;6.67;2.50;;;;;;;;;;4974086;28;20209;-55
2022/05/28 10:01:58;;;;;;;6.07;2.10;;;;;;;;;;4974097;28;20204;-56
2022/05/28 10:04:30;;;;;;;6.20;1.97;;;;;;;;;;4973968;28;20208;-56
2022/05/28 10:06:57;;;;;;;5.97;2.03;;;;;;;;;;4974050;28;20204;-56
2022/05/28 10:09:24;;;;;;;8.47;2.30;;;;;;;;;;4973788;28;20203;-55
2022/05/28 10:11:51;;;;;;;5.13;2.30;;;;;;;;;;4973540;28;20648;-55
2022/05/28 10:14:18;;;;;;;8.60;2.63;;;;;;;;;;4973936;28;20231;-56
2022/05/28 10:16:46;;;;;;;8.93;2.70;;;;;;;;;;4973602;28;20226;-54
2022/05/28 10:19:18;;;;;;;6.47;2.43;;;;;;;;;;4973759;28;20207;-55
2022/05/28 10:21:50;;;;;;;8.70;2.60;;;;;;;;;;4973593;28;20215;-55
2022/05/28 10:24:18;;;;;;;8.70;2.53;;;;;;;;;;4973621;28;20218;-54
2022/05/28 10:26:46;;;;;;;5.13;2.10;;;;;;;;;;4973559;28;20230;-54
2022/05/28 10:29:17;;;;;;;7.17;2.37;;;;;;;;;;4973493;28;20214;-56
2022/05/28 10:31:45;;;;;;;8.30;2.93;;;;;;;;;;4973402;28;20196;-56
2022/05/28 10:34:23;;;;;;;10.37;2.83;;;;;;;;;;4973144;28;20577;-56
2022/05/28 10:36:49;;;;;;;8.30;2.40;;;;;;;;;;4973473;28;20817;-55
2022/05/28 10:39:17;;;;;;;8.10;2.93;;;;;;;;;;4971584;28;20665;-54
2022/05/28 10:41:44;;;;;;;9.23;2.40;;;;;;;;;;4973162;28;20206;-54
2022/05/28 10:44:15;;;;;;;11.57;3.20;;;;;;;;;;4972957;28;20230;-54
2022/05/28 10:46:47;;;;;;;8.27;2.90;;;;;;;;;;4972882;28;20207;-55
2022/05/28 10:49:19;;;;;;;5.87;2.10;;;;;;;;;;4972944;28;20210;-55
2022/05/28 10:51:52;;;;;;;6.87;2.73;;;;;;;;;;4973181;28;20251;-56
2022/05/28 10:54:23;;;;;;;4.77;2.20;;;;;;;;;;4973031;28;20217;-55
2022/05/28 10:56:53;;;;;;;8.00;2.80;;;;;;;;;;4972647;28;20235;-56
2022/05/28 10:59:25;;;;;;;8.57;2.13;;;;;;;;;;4972742;28;20683;-55
2022/05/28 11:01:56;;;;;;;6.20;2.50;;;;;;;;;;4972708;28;20209;-56
2022/05/28 11:04:26;;;;;;;8.60;2.87;;;;;;;;;;4972899;28;20243;-56
2022/05/28 11:07:03;;;;;;;6.67;2.10;;;;;;;;;;4973030;28;20195;-56
2022/05/28 11:09:34;;;;;;;6.13;1.90;;;;;;;;;;4973004;28;20295;-56
2022/05/28 11:12:05;;;;;;;5.77;2.00;;;;;;;;;;4968867;28;20286;-57
2022/05/28 11:14:36;;;;;;;2.90;1.57;;;;;;;;;;4972195;28;20210;-57
2022/05/28 11:17:11;;;;;;;6.27;1.63;;;;;;;;;;4972961;28;20202;-56
2022/05/28 11:19:44;;;;;;;4.43;1.53;;;;;;;;;;4972925;28;20203;-56
2022/05/28 11:22:19;;;;;;;5.33;1.80;;;;;;;;;;4973034;28;20208;-57
2022/05/28 11:24:54;;;;;;;6.37;2.00;;;;;;;;;;4972742;28;20296;-56
2022/05/28 11:27:24;;;;;;;3.77;2.00;;;;;;;;;;4972800;28;20313;-57
2022/05/28 11:29:53;;;;;;;5.57;2.00;;;;;;;;;;4972773;28;20295;-57
2022/05/28 11:32:23;;;;;;;6.50;1.87;;;;;;;;;;4972880;28;20228;-56
2022/05/28 11:34:52;;;;;;;3.83;1.87;;;;;;;;;;4972426;28;20267;-57
2022/05/28 11:37:22;;;;;;;7.20;2.30;;;;;;;;;;4972797;28;20248;-56
2022/05/28 11:39:50;;;;;;;5.97;2.27;;;;;;;;;;4972735;28;20293;-56
2022/05/28 11:42:22;;;;;;;4.63;1.87;;;;;;;;;;4971065;28;20249;-54
2022/05/28 11:44:52;;;;;;;5.63;1.80;;;;;;;;;;4972634;28;20238;-54
2022/05/28 11:47:22;;;;;;;5.27;2.00;;;;;;;;;;4972830;28;20209;-54
2022/05/28 11:52:43;;;;;;;3.87;2.00;;;;;;;;;;4972741;28;20202;-55
2022/05/28 11:55:10;;;;;;;6.97;2.40;;;;;;;;;;4972754;28;20202;-56
2022/05/28 11:57:40;;;;;;;5.13;1.83;;;;;;;;;;4975993;28;20198;-56
2022/05/28 12:00:08;;;;;;;4.70;1.80;;;;;;;;;;4976321;28;20257;-56
2022/05/28 12:02:35;;;;;;;5.07;1.70;;;;;;;;;;4976199;28;20695;-56
2022/05/28 12:05:01;;;;;;;4.00;1.63;;;;;;;;;;4976123;28;20700;-56
2022/05/28 12:07:31;;;;;;;6.83;2.50;;;;;;;;;;4975691;28;20704;-55
2022/05/28 12:09:59;;;;;;;8.03;2.53;;;;;;;;;;4975998;28;20598;-55
2022/05/28 12:12:26;;;;;;;6.47;2.23;;;;;;;;;;4976096;28;20237;-56
2022/05/28 12:15:02;;;;;;;5.37;2.20;;;;;;;;;;4975699;28;20202;-55
2022/05/28 12:17:29;;;;;;;5.93;2.10;;;;;;;;;;4976054;28;20291;-55
2022/05/28 12:19:56;;;;;;;6.00;2.27;;;;;;;;;;4975853;28;20268;-55
2022/05/28 12:22:24;;;;;;;7.77;2.50;;;;;;;;;;4975754;28;20201;-55
2022/05/28 12:24:55;;;;;;;6.60;2.33;;;;;;;;;;4975370;28;20688;-55
2022/05/28 12:27:24;;;;;;;3.83;1.90;;;;;;;;;;4975635;28;20329;-55
2022/05/28 12:30:00;;;;;;;5.23;1.90;;;;;;;;;;4975637;28;20318;-54
2022/05/28 12:32:27;;;;;;;4.03;2.00;;;;;;;;;;4975739;28;20202;-54
2022/05/28 12:34:54;;;;;;;5.43;2.17;;;;;;;;;;4975576;28;20195;-54
2022/05/28 12:37:21;;;;;;;5.20;2.30;;;;;;;;;;4975773;28;20198;-54
2022/05/28 12:39:53;;;;;;;4.93;2.10;;;;;;;;;;4975569;28;20261;-54
2022/05/28 12:42:20;;;;;;;6.10;2.03;;;;;;;;;;4975579;28;20206;-53
2022/05/28 12:44:50;;;;;;;3.73;1.87;;;;;;;;;;4975352;28;20233;-54
2022/05/28 12:47:23;;;;;;;8.23;1.90;;;;;;;;;;4975605;28;20633;-53
2022/05/28 12:49:52;;;;;;;6.40;2.20;;;;;;;;;;4975417;28;20201;-54
2022/05/28 12:52:27;;;;;;;4.70;2.17;;;;;;;;;;4975563;28;20207;-53
2022/05/28 12:55:01;;;;;;;5.80;2.00;;;;;;;;;;4974966;28;20204;-54
2022/05/28 12:57:31;;;;;;;4.43;1.90;;;;;;;;;;4974978;28;20590;-54
2022/05/28 13:00:04;;;;;;;6.53;2.10;;;;;;;;;;4974809;28;20214;-54
2022/05/28 13:02:32;;;;;;;4.03;2.17;;;;;;;;;;4975234;28;20237;-53
2022/05/28 13:05:03;;;;;;;5.57;1.93;;;;;;;;;;4974581;28;20222;-53
2022/05/28 13:07:34;;;;;;;8.33;1.60;;;;;;;;;;4973293;28;20263;-55
2022/05/28 13:10:02;;;;;;;4.80;2.10;;;;;;;;;;4974781;28;20689;-56
2022/05/28 13:12:30;;;;;;;6.23;2.17;;;;;;;;;;4975027;28;20213;-55
2022/05/28 13:15:14;;;;;;;7.17;2.63;;;;;;;;;;4974715;28;20289;-53
2022/05/28 13:17:48;;;;;;;5.23;2.00;;;;;;;;;;4974494;28;20239;-53
2022/05/28 13:20:29;;;;;;;6.67;2.27;;;;;;;;;;4974755;28;20236;-53
2022/05/28 13:23:10;;;;;;;6.77;2.20;;;;;;;;;;4974671;28;20293;-54
2022/05/28 13:25:52;;;;;;;5.23;1.83;;;;;;;;;;4969453;28;20790;-54
2022/05/28 13:28:26;;;;;;;11.33;2.73;;;;;;;;;;4974193;28;20239;-55
2022/05/28 13:30:53;;;;;;;7.03;3.10;;;;;;;;;;4973888;28;20208;-54
2022/05/28 13:33:21;;;;;;;4.93;2.20;;;;;;;;;;4973939;28;20233;-54
2022/05/28 13:35:48;;;;;;;4.73;2.10;;;;;;;;;;4974053;28;20614;-54
2022/05/28 13:38:16;;;;;;;6.13;2.30;;;;;;;;;;4974190;28;20210;-53
2022/05/28 13:40:42;;;;;;;6.77;2.10;;;;;;;;;;4973979;28;20201;-54
2022/05/28 13:43:11;;;;;;;6.43;2.17;;;;;;;;;;4973830;28;20205;-54
2022/05/28 13:45:39;;;;;;;9.63;1.93;;;;;;;;;;4973699;28;20729;-53
2022/05/28 13:48:06;;;;;;;3.87;2.00;;;;;;;;;;4973957;28;20207;-53
2022/05/28 13:50:36;;;;;;;5.53;1.90;;;;;;;;;;4973951;28;20606;-54
2022/05/28 13:53:02;;;;;;;8.63;2.30;;;;;;;;;;4973606;28;20203;-54
2022/05/28 13:55:28;;;;;;;6.50;1.80;;;;;;;;;;4973832;28;20207;-54
2022/05/28 13:57:54;;;;;;;6.40;2.03;;;;;;;;;;4973710;28;20242;-55
2022/05/28 14:00:25;;;;;;;2.60;1.73;;;;;;;;;;4973691;28;20212;-54
2022/05/28 14:02:55;;;;;;;7.37;2.13;;;;;;;;;;4973549;28;20208;-54
2022/05/28 14:05:24;;;;;;;4.43;2.00;;;;;;;;;;4973408;28;20300;-54
2022/05/28 14:07:52;;;;;;;6.30;1.93;;;;;;;;;;4973423;28;20267;-54
2022/05/28 14:10:18;;;;;;;6.33;1.70;;;;;;;;;;4973509;28;20696;-54
2022/05/28 14:12:46;;;;;;;4.77;1.97;;;;;;;;;;4973618;28;20298;-55
2022/05/28 14:15:13;;;;;;;3.43;1.87;;;;;;;;;;4973589;28;20216;-54
2022/05/28 14:17:40;;;;;;;4.47;1.77;;;;;;;;;;4973209;28;20650;-54
2022/05/28 14:20:08;;;;;;;8.63;1.80;;;;;;;;;;4972839;28;20199;-54
2022/05/28 14:22:36;;;;;;;5.83;1.87;;;;;;;;;;4973353;28;20302;-54
2022/05/28 14:25:04;;;;;;;6.80;2.20;;;;;;;;;;4973087;28;20239;-54
2022/05/28 14:27:31;;;;;;;3.67;2.07;;;;;;;;;;4972988;28;20707;-54
2022/05/28 14:29:58;;;;;;;5.53;1.57;;;;;;;;;;4973068;28;20302;-54
2022/05/28 14:32:28;;;;;;;4.20;1.60;;;;;;;;;;4973154;28;20254;-54
2022/05/28 14:34:55;;;;;;;4.17;2.00;;;;;;;;;;4972868;28;20223;-55
2022/05/28 14:37:22;;;;;;;6.77;1.90;;;;;;;;;;4973223;28;20299;-55
2022/05/28 14:39:48;;;;;;;4.43;1.80;;;;;;;;;;4973093;28;20227;-54
2022/05/28 14:42:19;;;;;;;5.30;1.67;;;;;;;;;;4972879;28;20199;-54
2022/05/28 14:44:45;;;;;;;7.37;2.07;;;;;;;;;;4973100;28;20555;-54
2022/05/28 14:47:11;;;;;;;4.17;1.53;;;;;;;;;;4972668;28;20257;-54
2022/05/28 14:49:38;;;;;;;6.90;2.17;;;;;;;;;;4972788;28;20669;-54
2022/05/28 14:52:09;;;;;;;7.20;2.13;;;;;;;;;;4972770;28;20234;-53
2022/05/28 14:54:39;;;;;;;5.50;1.90;;;;;;;;;;4972836;28;20277;-55
2022/05/28 14:57:06;;;;;;;3.80;1.80;;;;;;;;;;4972648;28;20226;-55